• Join FlightAware (Why Join?)
  • Login
  • US Flag 
08:46PM EDT


 

Airport Tracker/Info


-or-


 

Live Flight TrackerFlight Track Log ✈ EJA941 ✈ 14-Oct-2013 ✈ MWCR / GCM - KORD

Flight Track Log - Related Links

Times and Time Zones

All times are in EDT time to prevent confusion due to time zone crossing. See the EJA941 flight status page for this flight to view local times or setup timezone preferences in your user account.

Time Position Orientation Groundspeed Altitude Reporting Facility
EDT Latitude Longitude Course Direction KTS MPH feet Rate Location/Type
02:56PM 23.2022 -81.4961 350° North 473 544 42,800  Level Miami Center
02:57PM 23.3206 -81.5186 350° North 451 519 43,000 60 Climbing Miami Center
02:58PM 23.4408 -81.5478 347° North 443 510 43,000  Level Miami Center
02:59PM 23.5611 -81.5750 348° North 437 503 43,000  Level Miami Center
03:00PM 23.6814 -81.6019 348° North 437 503 43,000  Level Miami Center
03:01PM 23.8017 -81.6269 349° North 437 503 43,000  Level Miami Center
03:02PM 23.9364 -81.6569 348° North 442 509 43,000  Level Miami Center
03:03PM 24.0589 -81.6844 348° North 442 509 43,000  Level Miami Center
03:04PM 24.1747 -81.7139 347° North 447 514 43,000  Level Miami Center
03:05PM 24.2947 -81.7481 345° North 447 514 43,000  Level Miami Center
03:06PM 24.3919 -81.7747 346° North 422 486 43,000  Level Miami Center
03:07PM 24.5203 -81.8142 344° North 417 480 43,000  Level Miami Center
03:08PM 24.6486 -81.8467 347° North 438 504 43,000  Level Miami Center
03:09PM 24.7625 -81.8719 349° North 435 501 43,000  Level Miami Center
03:10PM 24.8806 -81.9017 347° North 428 493 43,000  Level Miami Center
03:11PM 24.9922 -81.9339 345° North 428 493 43,000  Level Miami Center
03:12PM 25.1122 -81.9617 348° North 428 493 43,000  Level Miami Center
03:13PM 25.2261 -81.9942 346° North 428 493 43,000  Level Miami Center
03:14PM 25.3419 -82.0242 347° North 428 493 43,000  Level Miami Center
03:15PM 25.4536 -82.0542 346° North 428 493 43,000  Level Miami Center
03:16PM 25.5694 -82.0847 347° North 428 493 43,000  Level Miami Center
03:18PM 25.8011 -82.1478 346° North 428 493 43,000  Level Miami Center
03:19PM 25.9147 -82.1781 347° North 428 493 43,000  Level Miami Center
03:20PM 26.0306 -82.2108 346° North 428 493 43,000  Level Miami Center
03:21PM 26.1461 -82.2417 347° North 428 493 43,000  Level Miami Center
03:22PM 26.2556 -82.2767 344° North 422 486 43,000  Level Miami Center
03:23PM 26.3694 -82.3050 347° North 414 476 43,000  Level Miami Center
03:24PM 26.4808 -82.3356 346° North 414 476 43,000  Level Miami Center
03:25PM 26.5967 -82.3689 346° North 414 476 43,000  Level Miami Center
03:26PM 26.7103 -82.3975 347° North 414 476 43,000  Level Miami Center
03:27PM 26.8239 -82.4308 345° North 414 476 43,000  Level Miami Center
03:28PM 26.9372 -82.4619 346° North 414 476 43,000  Level Miami Center
03:29PM 27.0508 -82.4931 346° North 414 476 43,000  Level Miami Center
03:30PM 27.1625 -82.5242 346° North 414 476 43,000  Level Miami Center
03:31PM 27.2761 -82.5531 347° North 414 476 43,000  Level Miami Center
03:32PM 27.3894 -82.5842 346° North 414 476 43,000  Level Miami Center
03:33PM 27.4906 -82.6128 346° North 414 476 43,000  Level Miami Center
03:35PM 27.7825 -82.6978 346° North 409 471 43,000  Level Jacksonville Center
03:36PM 27.8975 -82.7281 347° North 414 476 43,000  Level Jacksonville Center
03:37PM 28.0081 -82.7586 346° North 414 476 43,000  Level Jacksonville Center
03:38PM 28.1228 -82.7914 346° North 414 476 43,000  Level Jacksonville Center
03:39PM 28.2356 -82.8242 346° North 414 476 43,000 120 Level Jacksonville Center
03:40PM 28.3503 -82.8547 347° North 414 476 43,300 360 Climbing Jacksonville Center
03:41PM 28.4608 -82.8878 345° North 414 476 43,800 480 Climbing Jacksonville Center
03:42PM 28.5736 -82.9186 346° North 414 476 44,300 480 Climbing Jacksonville Center
03:43PM 28.6819 -82.9494 346° North 409 471 44,800 300 Climbing Jacksonville Center
03:44PM 28.7758 -82.9756 346° North 390 449 45,000 60 Climbing Jacksonville Center
03:45PM 28.8867 -83.0064 346° North 396 456 45,000  Level Jacksonville Center
03:46PM 28.9992 -83.0397 345° North 406 467 45,000  Level Jacksonville Center
03:47PM 29.1119 -83.0731 346° North 411 473 45,000  Level Jacksonville Center
03:48PM 29.2244 -83.1067 345° North 411 473 45,000  Level Jacksonville Center
03:49PM 29.3372 -83.1403 345° North 411 473 45,000  Level Jacksonville Center
03:50PM 29.4519 -83.1717 347° North 411 473 45,000  Level Jacksonville Center
03:51PM 29.5667 -83.2053 346° North 422 486 45,000  Level Jacksonville Center
03:52PM 29.6814 -83.2417 345° North 417 480 45,000  Level Jacksonville Center
03:53PM 29.8086 -83.2828 344° North 417 480 45,000  Level Jacksonville Center
03:54PM 29.9233 -83.3119 348° North 417 480 45,000  Level Jacksonville Center
03:55PM 30.0381 -83.3436 347° North 417 480 45,000  Level Jacksonville Center
03:56PM 30.1528 -83.3753 347° North 417 480 45,000  Level Jacksonville Center
03:57PM 30.2675 -83.4097 345° North 417 480 45,000  Level Jacksonville Center
03:58PM 30.3844 -83.4417 347° North 417 480 45,000  Level Jacksonville Center
03:59PM 30.5011 -83.4761 346° North 417 480 45,000  Level Jacksonville Center
04:00PM 30.6158 -83.5106 346° North 417 480 45,000  Level Jacksonville Center
04:01PM 30.7325 -83.5450 346° North 417 480 45,000  Level Jacksonville Center
04:02PM 30.8408 -83.5797 345° North 412 474 45,000  Level Jacksonville Center
04:05PM 31.1344 -83.6678 346° North 438 504 45,000  Level Atlanta Center
04:06PM 31.2472 -83.7014 346° North 438 504 45,000  Level Atlanta Center
04:07PM 31.3644 -83.7372 345° North 427 491 45,000  Level Atlanta Center
04:08PM 31.4750 -83.7736 344° North 422 486 45,000  Level Atlanta Center
04:09PM 31.6044 -83.8122 346° North 422 486 45,000  Level Atlanta Center
04:10PM 31.7131 -83.8339 350° North 422 486 45,000  Level Atlanta Center
04:11PM 31.8531 -83.8581 352° North 449 517 45,000  Level Atlanta Center
04:12PM 31.9719 -83.8797 351° North 449 517 45,000  Level Atlanta Center
04:13PM 32.0889 -83.9017 351° North 437 503 45,000  Level Atlanta Center
04:14PM 32.2058 -83.9233 351° North 427 491 45,000  Level Atlanta Center
04:15PM 32.3269 -83.9478 350° North 427 491 45,000  Level Atlanta Center
04:16PM 32.4458 -83.9700 351° North 427 491 45,000  Level Atlanta Center
04:17PM 32.5669 -83.9944 350° North 427 491 45,000  Level Atlanta Center
04:18PM 32.6756 -84.0042 356° North 427 491 45,000  Level Atlanta Center
04:19PM 32.7986 -84.0117 357° North 427 491 45,000  Level Atlanta Center
04:20PM 32.9197 -84.0192 357° North 432 497 45,000  Level Atlanta Center
04:21PM 33.0450 -84.0314 355° North 438 504 45,000  Level Atlanta Center
04:22PM 33.1658 -84.0414 356° North 438 504 45,000  Level Atlanta Center
04:23PM 33.2892 -84.0489 357° North 445 512 45,000  Level Atlanta Center
04:24PM 33.4122 -84.0561 357° North 440 506 45,000  Level Atlanta Center
04:25PM 33.5356 -84.0636 357° North 440 506 45,000  Level Atlanta Center
04:26PM 33.6564 -84.0714 357° North 440 506 45,000  Level Atlanta Center
04:27PM 33.7797 -84.0789 357° North 440 506 45,000  Level Atlanta Center
04:28PM 33.9028 -84.0864 357° North 440 506 45,000  Level Atlanta Center
04:29PM 34.0258 -84.0939 357° North 440 506 45,000  Level Atlanta Center
04:30PM 34.1469 -84.1042 356° North 440 506 45,000  Level Atlanta Center
04:31PM 34.2700 -84.1142 356° North 440 506 45,000  Level Atlanta Center
04:32PM 34.4036 -84.1219 357° North 440 506 45,000  Level Atlanta Center
04:33PM 34.5267 -84.1322 356° North 440 506 45,000  Level Atlanta Center
04:34PM 34.6478 -84.1422 356° North 435 501 45,000  Level Atlanta Center
04:35PM 34.7667 -84.1550 355° North 430 495 45,000  Level Atlanta Center
04:36PM 34.8900 -84.1653 356° North 430 495 45,000  Level Atlanta Center
04:37PM 35.0131 -84.1756 356° North 430 495 45,000  Level Atlanta Center
04:38PM 35.1361 -84.1836 357° North 435 501 45,000  Level Atlanta Center
04:39PM 35.2592 -84.1914 357° North 440 506 45,000  Level Atlanta Center
04:40PM 35.3822 -84.1992 357° North 440 506 45,000  Level Atlanta Center
04:41PM 35.5075 -84.2097 356° North 440 506 45,000  Level Atlanta Center
04:42PM 35.6283 -84.2203 356° North 440 506 45,000  Level Atlanta Center
04:43PM 35.7514 -84.2306 356° North 440 506 45,000  Level Atlanta Center
04:44PM 35.8725 -84.2361 358° North 440 506 45,000  Level Atlanta Center
04:46PM 36.1172 -84.2564 356° North 446 513 45,000  Level Indianapolis Center
04:47PM 36.2419 -84.2669 356° North 450 518 45,000  Level Indianapolis Center
04:48PM 36.3661 -84.2758 357° North 449 517 45,000  Level Indianapolis Center
04:49PM 36.4906 -84.2853 357° North 450 518 45,000  Level Indianapolis Center
04:50PM 36.6158 -84.2961 356° North 452 520 45,000  Level Indianapolis Center
04:51PM 36.7622 -84.3133 355° North 450 518 45,000  Level Indianapolis Center
04:52PM 36.8806 -84.3542 345° North 439 505 45,000  Level Indianapolis Center
04:53PM 36.9986 -84.3956 344° North 440 506 45,000  Level Indianapolis Center
04:54PM 37.1161 -84.4364 345° North 437 503 45,000  Level Indianapolis Center
04:55PM 37.2333 -84.4783 344° North 437 503 45,000  Level Indianapolis Center
04:56PM 37.3511 -84.5197 344° North 439 505 45,000  Level Indianapolis Center
04:57PM 37.4878 -84.5675 344° North 436 502 45,000  Level Indianapolis Center
04:58PM 37.6044 -84.6106 344° North 435 501 45,000  Level Indianapolis Center
04:59PM 37.7225 -84.6519 345° North 437 503 45,000  Level Indianapolis Center
05:00PM 37.8392 -84.6936 344° North 437 503 45,000 -60 Level Indianapolis Center
05:01PM 37.9561 -84.7364 344° North 434 499 44,900 -600 Descending Indianapolis Center
05:03PM 38.0919 -84.7853 344° North 434 499 43,800 -1,020 Descending Indianapolis Center
05:04PM 38.2069 -84.8242 345° North 429 494 42,800 -960 Descending Indianapolis Center
05:05PM 38.3194 -84.8647 344° North 420 483 41,800 -1,500 Descending Indianapolis Center
05:06PM 38.4319 -84.9056 344° North 419 482 39,800 -1,860 Descending Indianapolis Center
05:07PM 38.5472 -84.9494 343° North 428 493 38,000 -900 Descending Indianapolis Center
05:08PM 38.6800 -84.9961 345° North 442 509 38,000 -360 Level Indianapolis Center
05:09PM 38.7972 -85.0397 344° North 447 514 37,300 -840 Descending Indianapolis Center
05:10PM 38.9114 -85.0833 343° North 435 501 36,300 -1,200 Descending Indianapolis Center
05:11PM 39.0283 -85.1264 344° North 436 502 34,900 -1,440 Descending Indianapolis Center
05:12PM 39.1525 -85.1719 344° North 461 531 33,400 -1,620 Descending Indianapolis Center
05:13PM 39.3083 -85.2297 344° North 483 556 31,600 -1,740 Descending Indianapolis Center
05:14PM 39.4442 -85.2806 344° North 503 579 29,900 -1,680 Descending Indianapolis Center
05:15PM 39.5786 -85.3308 344° North 507 583 28,200 -960 Descending Indianapolis Center
05:16PM 39.7119 -85.3806 344° North 504 580 28,000 -120 Descending Indianapolis Center
05:17PM 39.8419 -85.4306 344° North 496 571 28,000  Level Indianapolis Center
05:18PM 39.9992 -85.4903 344° North 495 570 28,000  Level Indianapolis Center
05:19PM 40.1308 -85.5400 344° North 496 571 28,000 -1,020 Level Indianapolis Center
05:20PM 40.2614 -85.5925 343° North 495 570 26,000 -1,020 Descending Indianapolis Center
05:21PM 40.3617 -85.7028 320° Northwest 479 551 26,000 -180 Level Indianapolis Center
05:22PM 40.4503 -85.8319 312° West 479 551 25,700 -780 Descending Indianapolis Center
05:23PM 40.5564 -85.9861 312° West 479 551 24,500 -1,080 Descending Chicago Center
05:24PM 40.6433 -86.1147 312° West 477 549 23,600 -780 Descending Chicago Center
05:25PM 40.7244 -86.2350 312° West 472 543 23,000 -360 Descending Chicago Center
05:26PM 40.8108 -86.3622 312° West 465 535 22,900 -720 Descending Chicago Center
05:27PM 40.9147 -86.5178 311° West 469 540 21,600 -1,200 Descending Chicago Center
05:28PM 41.0025 -86.6467 312° West 470 541 20,500 -1,080 Descending Chicago Center
05:29PM 41.0894 -86.7761 312° West 465 535 19,400 -1,080 Descending Chicago Center
05:30PM 41.1717 -86.8997 311° West 459 528 18,300 -960 Descending Chicago Center
05:31PM 41.2533 -87.0236 311° West 453 521 17,500 -1,440 Descending Chicago Center
05:32PM 41.3322 -87.1422 312° West 440 506 15,400 -2,220 Descending Chicago Center
05:34PM 41.4272 -87.2692 315° West 414 476 12,900 -2,160 Descending Chicago Center
05:35PM 41.5069 -87.3628 319° Northwest 396 456 11,000 -960 Descending Chicago Center
05:36PM 41.5833 -87.4469 321° Northwest 372 428 11,000 -180 Level Chicago Center
05:37PM 41.6589 -87.5300 321° Northwest 360 414 10,700 -1,080 Descending Chicago Center
05:38PM 41.7331 -87.6153 319° Northwest 301 346 8,800 -1,740 Descending Chicago Center
05:39PM 41.7961 -87.6867 320° Northwest 300 345 7,200 -900 Descending Chicago Center
05:40PM 41.8250 -87.7547 300° West 237 273 7,000 -120 Descending Chicago Center
05:41PM 41.8269 -87.8297 272° West 207 238 7,000 -720 Level Chicago Center
05:42PM 41.8283 -87.9044 271° West 204 235 5,600 -1,500 Descending Chicago Center
05:43PM 41.7928 -87.9728 235° Southwest 195 224 4,000 -780 Descending Chicago Center
05:44PM 41.7867 -88.0300 262° West 202 232 4,000  Level Chicago Center
05:45PM 41.8292 -88.0619 331° Northwest 204 235 4,000 -420 Level Chicago Center
05:46PM 41.8583 -88.0114 52° Northeast 182 209 3,200 -840 Descending Chicago Center
05:47PM 41.8933 -87.9703 41° Northeast 173 199 2,300 -900 Descending Chicago Center
05:48PM 41.9333 -87.9333 34° Northeast 138 159 1,400 -900 Descending Chicago TRACON
05:51PM 41.9667 -87.9000 15° North  Level FlightAware Approximate